South Point, Hawaii
Current Conditions -  °F | °C
As of 2:56 PM on Tuesday 25 Nov 2014 (Local Time) from PHSF Reporting Station
Clear Clear  
Wind Chill: 69°   Ceiling: Unl
Heat Index: 69°   Visibility: 10mi
Dew Point: 50°   Wind: 6mph
Humidity: 51%   Direction: 230°SW
Pressure: 30.26"   Gusts: NA
Location:  19°N, 155.67°W
Report Text: PHSF 260056Z AUTO 23005KT 10SM CLR 21/10 A3026 RMK AO2 SLP137 T02050099 $
Loading
Personal Weather Stations






























Interactive Weather Map New forecast layout! Learn more

10-Day Weather Forecast

Advertisements
Track Severe Weather on mobile